sensor_id;sensor_type;location;lat;lon;timestamp;temperature;humidity
45729;DHT22;31439;53.512;10.206;2022-07-29T00:00:41;15.20;99.90
45729;DHT22;31439;53.512;10.206;2022-07-29T00:03:10;15.10;99.90
45729;DHT22;31439;53.512;10.206;2022-07-29T00:05:36;15.00;99.90
45729;DHT22;31439;53.512;10.206;2022-07-29T00:08:03;15.00;99.90
45729;DHT22;31439;53.512;10.206;2022-07-29T00:10:29;14.90;99.90
45729;DHT22;31439;53.512;10.206;2022-07-29T00:12:54;14.90;99.90
45729;DHT22;31439;53.512;10.206;2022-07-29T00:15:20;14.80;99.90
45729;DHT22;31439;53.512;10.206;2022-07-29T00:17:45;14.80;99.90
45729;DHT22;31439;53.512;10.206;2022-07-29T00:20:11;14.70;99.90
45729;DHT22;31439;53.512;10.206;2022-07-29T00:22:38;14.80;99.90
45729;DHT22;31439;53.512;10.206;2022-07-29T00:25:04;14.70;99.90
45729;DHT22;31439;53.512;10.206;2022-07-29T00:27:30;14.70;99.90
45729;DHT22;31439;53.512;10.206;2022-07-29T00:29:55;14.70;99.90
45729;DHT22;31439;53.512;10.206;2022-07-29T00:32:21;14.60;99.90
45729;DHT22;31439;53.512;10.206;2022-07-29T00:34:47;14.70;99.90
45729;DHT22;31439;53.512;10.206;2022-07-29T00:37:31;14.60;99.90
45729;DHT22;31439;53.512;10.206;2022-07-29T00:39:57;14.60;99.90
45729;DHT22;31439;53.512;10.206;2022-07-29T00:42:22;14.70;99.90
45729;DHT22;31439;53.512;10.206;2022-07-29T00:44:48;14.70;99.90
45729;DHT22;31439;53.512;10.206;2022-07-29T00:47:14;14.50;99.90
45729;DHT22;31439;53.512;10.206;2022-07-29T00:49:40;14.50;99.90
45729;DHT22;31439;53.512;10.206;2022-07-29T00:52:08;14.50;99.90
45729;DHT22;31439;53.512;10.206;2022-07-29T00:54:35;14.50;99.90
45729;DHT22;31439;53.512;10.206;2022-07-29T00:57:01;14.50;99.90
45729;DHT22;31439;53.512;10.206;2022-07-29T00:59:27;14.50;99.90
45729;DHT22;31439;53.512;10.206;2022-07-29T01:01:53;14.50;99.90
45729;DHT22;31439;53.512;10.206;2022-07-29T01:04:19;14.60;99.90
45729;DHT22;31439;53.512;10.206;2022-07-29T01:06:46;14.50;99.90
45729;DHT22;31439;53.512;10.206;2022-07-29T01:09:13;14.50;99.90
45729;DHT22;31439;53.512;10.206;2022-07-29T01:11:39;14.50;99.90
45729;DHT22;31439;53.512;10.206;2022-07-29T01:14:06;14.50;99.90
45729;DHT22;31439;53.512;10.206;2022-07-29T01:16:52;14.50;99.90
45729;DHT22;31439;53.512;10.206;2022-07-29T01:22:31;14.60;99.90
45729;DHT22;31439;53.512;10.206;2022-07-29T01:30:24;14.40;99.90
45729;DHT22;31439;53.512;10.206;2022-07-29T01:32:54;14.40;99.90
45729;DHT22;31439;53.512;10.206;2022-07-29T01:35:26;14.40;99.90
45729;DHT22;31439;53.512;10.206;2022-07-29T01:38:13;14.40;99.90
45729;DHT22;31439;53.512;10.206;2022-07-29T01:40:50;14.40;99.90
45729;DHT22;31439;53.512;10.206;2022-07-29T01:43:20;14.40;99.90
45729;DHT22;31439;53.512;10.206;2022-07-29T01:45:57;14.40;99.90
45729;DHT22;31439;53.512;10.206;2022-07-29T01:48:48;14.30;99.90
45729;DHT22;31439;53.512;10.206;2022-07-29T01:51:19;14.30;99.90
45729;DHT22;31439;53.512;10.206;2022-07-29T01:53:55;14.20;99.90
45729;DHT22;31439;53.512;10.206;2022-07-29T01:56:24;14.20;99.90
45729;DHT22;31439;53.512;10.206;2022-07-29T01:58:52;14.20;99.90
45729;DHT22;31439;53.512;10.206;2022-07-29T02:01:18;14.20;99.90
45729;DHT22;31439;53.512;10.206;2022-07-29T02:03:46;14.30;99.90
45729;DHT22;31439;53.512;10.206;2022-07-29T02:06:18;14.30;99.90
45729;DHT22;31439;53.512;10.206;2022-07-29T02:08:45;14.30;99.90
45729;DHT22;31439;53.512;10.206;2022-07-29T02:11:12;14.40;99.90
45729;DHT22;31439;53.512;10.206;2022-07-29T02:13:38;14.40;99.90
45729;DHT22;31439;53.512;10.206;2022-07-29T02:16:06;14.30;99.90
45729;DHT22;31439;53.512;10.206;2022-07-29T02:18:33;14.40;99.90
45729;DHT22;31439;53.512;10.206;2022-07-29T02:21:02;14.30;99.90
45729;DHT22;31439;53.512;10.206;2022-07-29T02:23:30;14.30;99.90
45729;DHT22;31439;53.512;10.206;2022-07-29T02:25:57;14.40;99.90
45729;DHT22;31439;53.512;10.206;2022-07-29T02:28:26;14.40;99.90
45729;DHT22;31439;53.512;10.206;2022-07-29T02:30:53;14.40;99.90
45729;DHT22;31439;53.512;10.206;2022-07-29T02:33:21;14.40;99.90
45729;DHT22;31439;53.512;10.206;2022-07-29T02:35:48;14.40;99.90
45729;DHT22;31439;53.512;10.206;2022-07-29T02:38:16;14.30;99.90
45729;DHT22;31439;53.512;10.206;2022-07-29T02:41:04;14.20;99.90
45729;DHT22;31439;53.512;10.206;2022-07-29T02:43:32;14.20;99.90
45729;DHT22;31439;53.512;10.206;2022-07-29T02:45:58;14.10;99.90
45729;DHT22;31439;53.512;10.206;2022-07-29T02:48:36;14.10;99.90
45729;DHT22;31439;53.512;10.206;2022-07-29T02:51:10;14.10;99.90
45729;DHT22;31439;53.512;10.206;2022-07-29T02:53:37;14.10;99.90
45729;DHT22;31439;53.512;10.206;2022-07-29T02:56:11;14.00;99.90
45729;DHT22;31439;53.512;10.206;2022-07-29T02:58:45;14.10;99.90
45729;DHT22;31439;53.512;10.206;2022-07-29T03:01:16;14.10;99.90
45729;DHT22;31439;53.512;10.206;2022-07-29T03:03:44;14.10;99.90
45729;DHT22;31439;53.512;10.206;2022-07-29T03:06:13;14.10;99.90
45729;DHT22;31439;53.512;10.206;2022-07-29T03:08:40;14.10;99.90
45729;DHT22;31439;53.512;10.206;2022-07-29T03:11:08;14.20;99.90
45729;DHT22;31439;53.512;10.206;2022-07-29T03:13:35;14.20;99.90
45729;DHT22;31439;53.512;10.206;2022-07-29T03:16:01;14.10;99.90
45729;DHT22;31439;53.512;10.206;2022-07-29T03:18:27;14.10;99.90
45729;DHT22;31439;53.512;10.206;2022-07-29T03:20:53;14.10;99.90
45729;DHT22;31439;53.512;10.206;2022-07-29T03:23:23;14.20;99.90
45729;DHT22;31439;53.512;10.206;2022-07-29T03:25:52;14.20;99.90
45729;DHT22;31439;53.512;10.206;2022-07-29T03:28:18;14.10;99.90
45729;DHT22;31439;53.512;10.206;2022-07-29T03:30:45;14.20;99.90
45729;DHT22;31439;53.512;10.206;2022-07-29T03:33:10;14.10;99.90
45729;DHT22;31439;53.512;10.206;2022-07-29T03:35:36;14.10;99.90
45729;DHT22;31439;53.512;10.206;2022-07-29T03:38:02;14.20;99.90
45729;DHT22;31439;53.512;10.206;2022-07-29T03:40:35;14.20;99.90
45729;DHT22;31439;53.512;10.206;2022-07-29T03:43:05;14.10;99.90
45729;DHT22;31439;53.512;10.206;2022-07-29T03:45:33;14.20;99.90
45729;DHT22;31439;53.512;10.206;2022-07-29T03:48:01;14.20;99.90
45729;DHT22;31439;53.512;10.206;2022-07-29T03:50:29;14.30;99.90
45729;DHT22;31439;53.512;10.206;2022-07-29T03:52:55;14.40;99.90
45729;DHT22;31439;53.512;10.206;2022-07-29T03:55:21;14.40;99.90
45729;DHT22;31439;53.512;10.206;2022-07-29T03:57:48;14.40;99.90
45729;DHT22;31439;53.512;10.206;2022-07-29T04:00:15;14.40;99.90
45729;DHT22;31439;53.512;10.206;2022-07-29T04:02:42;14.40;99.90
45729;DHT22;31439;53.512;10.206;2022-07-29T04:05:12;14.40;99.90
45729;DHT22;31439;53.512;10.206;2022-07-29T04:07:39;14.40;99.90
45729;DHT22;31439;53.512;10.206;2022-07-29T04:10:05;14.50;99.90
45729;DHT22;31439;53.512;10.206;2022-07-29T04:12:30;14.50;99.90
45729;DHT22;31439;53.512;10.206;2022-07-29T04:14:56;14.50;99.90
45729;DHT22;31439;53.512;10.206;2022-07-29T04:17:21;14.50;99.90
45729;DHT22;31439;53.512;10.206;2022-07-29T04:19:47;14.50;99.90
45729;DHT22;31439;53.512;10.206;2022-07-29T04:22:13;14.50;99.90
45729;DHT22;31439;53.512;10.206;2022-07-29T04:24:38;14.50;99.90
45729;DHT22;31439;53.512;10.206;2022-07-29T04:27:04;14.60;99.90
45729;DHT22;31439;53.512;10.206;2022-07-29T04:29:29;14.60;99.90
45729;DHT22;31439;53.512;10.206;2022-07-29T04:31:55;14.70;99.90
45729;DHT22;31439;53.512;10.206;2022-07-29T04:34:20;14.60;99.90
45729;DHT22;31439;53.512;10.206;2022-07-29T04:36:46;14.70;99.90
45729;DHT22;31439;53.512;10.206;2022-07-29T04:39:12;14.80;99.90
45729;DHT22;31439;53.512;10.206;2022-07-29T04:41:38;14.70;99.90
45729;DHT22;31439;53.512;10.206;2022-07-29T04:44:04;14.80;99.90
45729;DHT22;31439;53.512;10.206;2022-07-29T04:46:31;14.70;99.90
45729;DHT22;31439;53.512;10.206;2022-07-29T04:48:56;14.80;99.90
45729;DHT22;31439;53.512;10.206;2022-07-29T04:51:22;14.80;99.90
45729;DHT22;31439;53.512;10.206;2022-07-29T04:53:48;14.80;99.90
45729;DHT22;31439;53.512;10.206;2022-07-29T04:56:13;14.90;99.90
45729;DHT22;31439;53.512;10.206;2022-07-29T04:58:39;15.00;99.90
45729;DHT22;31439;53.512;10.206;2022-07-29T05:01:04;15.10;99.90
45729;DHT22;31439;53.512;10.206;2022-07-29T05:03:30;15.10;99.90
45729;DHT22;31439;53.512;10.206;2022-07-29T05:05:56;15.10;99.90
45729;DHT22;31439;53.512;10.206;2022-07-29T05:08:21;15.20;99.90
45729;DHT22;31439;53.512;10.206;2022-07-29T05:10:47;15.20;99.90
45729;DHT22;31439;53.512;10.206;2022-07-29T05:13:12;15.20;99.90
45729;DHT22;31439;53.512;10.206;2022-07-29T05:15:38;15.20;99.90
45729;DHT22;31439;53.512;10.206;2022-07-29T05:18:04;15.30;99.90
45729;DHT22;31439;53.512;10.206;2022-07-29T05:20:30;15.30;99.90
45729;DHT22;31439;53.512;10.206;2022-07-29T05:22:57;15.30;99.90
45729;DHT22;31439;53.512;10.206;2022-07-29T05:25:24;15.30;99.90
45729;DHT22;31439;53.512;10.206;2022-07-29T05:27:50;15.30;99.90
45729;DHT22;31439;53.512;10.206;2022-07-29T05:30:15;15.40;99.90
45729;DHT22;31439;53.512;10.206;2022-07-29T05:32:41;15.40;99.90
45729;DHT22;31439;53.512;10.206;2022-07-29T05:35:07;15.50;99.90
45729;DHT22;31439;53.512;10.206;2022-07-29T05:37:33;15.60;99.90
45729;DHT22;31439;53.512;10.206;2022-07-29T05:39:59;15.60;99.90
45729;DHT22;31439;53.512;10.206;2022-07-29T05:42:25;15.60;99.90
45729;DHT22;31439;53.512;10.206;2022-07-29T05:44:51;15.70;99.90
45729;DHT22;31439;53.512;10.206;2022-07-29T05:47:16;15.70;99.90
45729;DHT22;31439;53.512;10.206;2022-07-29T05:49:42;15.70;99.90
45729;DHT22;31439;53.512;10.206;2022-07-29T05:52:08;15.70;99.90
45729;DHT22;31439;53.512;10.206;2022-07-29T05:54:35;15.70;99.90
45729;DHT22;31439;53.512;10.206;2022-07-29T05:57:00;15.90;99.90
45729;DHT22;31439;53.512;10.206;2022-07-29T05:59:26;15.90;99.90
45729;DHT22;31439;53.512;10.206;2022-07-29T06:01:52;15.90;99.90
45729;DHT22;31439;53.512;10.206;2022-07-29T06:04:17;16.00;99.90
45729;DHT22;31439;53.512;10.206;2022-07-29T06:06:43;16.10;99.90
45729;DHT22;31439;53.512;10.206;2022-07-29T06:09:09;16.10;99.90
45729;DHT22;31439;53.512;10.206;2022-07-29T06:11:34;16.30;99.90
45729;DHT22;31439;53.512;10.206;2022-07-29T06:14:00;16.30;99.90
45729;DHT22;31439;53.512;10.206;2022-07-29T06:16:26;16.40;99.90
45729;DHT22;31439;53.512;10.206;2022-07-29T06:18:51;16.40;99.90
45729;DHT22;31439;53.512;10.206;2022-07-29T06:21:17;16.50;99.90
45729;DHT22;31439;53.512;10.206;2022-07-29T06:23:44;16.50;99.90
45729;DHT22;31439;53.512;10.206;2022-07-29T06:26:10;16.50;99.90
45729;DHT22;31439;53.512;10.206;2022-07-29T06:28:36;16.60;99.90
45729;DHT22;31439;53.512;10.206;2022-07-29T06:31:01;16.60;99.90
45729;DHT22;31439;53.512;10.206;2022-07-29T06:33:27;16.60;99.90
45729;DHT22;31439;53.512;10.206;2022-07-29T06:35:53;16.70;99.90
45729;DHT22;31439;53.512;10.206;2022-07-29T06:38:19;16.70;99.90
45729;DHT22;31439;53.512;10.206;2022-07-29T06:40:45;16.80;99.90
45729;DHT22;31439;53.512;10.206;2022-07-29T06:43:39;16.80;99.90
45729;DHT22;31439;53.512;10.206;2022-07-29T06:46:11;16.80;99.90
45729;DHT22;31439;53.512;10.206;2022-07-29T06:48:38;16.80;99.90
45729;DHT22;31439;53.512;10.206;2022-07-29T06:51:04;16.90;99.90
45729;DHT22;31439;53.512;10.206;2022-07-29T06:53:31;16.90;99.90
45729;DHT22;31439;53.512;10.206;2022-07-29T06:55:58;17.00;99.90
45729;DHT22;31439;53.512;10.206;2022-07-29T06:58:25;17.50;99.90
45729;DHT22;31439;53.512;10.206;2022-07-29T07:00:51;17.90;99.90
45729;DHT22;31439;53.512;10.206;2022-07-29T07:03:17;18.10;99.90
45729;DHT22;31439;53.512;10.206;2022-07-29T07:05:43;18.30;99.90
45729;DHT22;31439;53.512;10.206;2022-07-29T07:08:10;18.50;99.90
45729;DHT22;31439;53.512;10.206;2022-07-29T07:10:36;18.40;99.90
45729;DHT22;31439;53.512;10.206;2022-07-29T07:13:02;18.10;99.90
45729;DHT22;31439;53.512;10.206;2022-07-29T07:15:28;17.90;99.90
45729;DHT22;31439;53.512;10.206;2022-07-29T07:17:53;17.80;99.90
45729;DHT22;31439;53.512;10.206;2022-07-29T07:20:19;17.70;99.90
45729;DHT22;31439;53.512;10.206;2022-07-29T07:22:45;17.70;99.90
45729;DHT22;31439;53.512;10.206;2022-07-29T07:25:11;17.70;99.90
45729;DHT22;31439;53.512;10.206;2022-07-29T07:27:37;17.80;99.90
45729;DHT22;31439;53.512;10.206;2022-07-29T07:30:04;17.80;99.90
45729;DHT22;31439;53.512;10.206;2022-07-29T07:32:31;17.70;99.90
45729;DHT22;31439;53.512;10.206;2022-07-29T07:34:57;17.70;99.90
45729;DHT22;31439;53.512;10.206;2022-07-29T07:37:24;17.70;99.90
45729;DHT22;31439;53.512;10.206;2022-07-29T07:39:50;17.70;99.90
45729;DHT22;31439;53.512;10.206;2022-07-29T07:42:17;17.80;99.90
45729;DHT22;31439;53.512;10.206;2022-07-29T07:44:42;17.80;99.90
45729;DHT22;31439;53.512;10.206;2022-07-29T07:47:08;17.90;99.90
45729;DHT22;31439;53.512;10.206;2022-07-29T07:49:33;17.90;99.90
45729;DHT22;31439;53.512;10.206;2022-07-29T07:51:59;18.00;99.90
45729;DHT22;31439;53.512;10.206;2022-07-29T07:54:25;18.10;99.90
45729;DHT22;31439;53.512;10.206;2022-07-29T07:56:50;18.20;99.90
45729;DHT22;31439;53.512;10.206;2022-07-29T07:59:16;18.30;99.90
45729;DHT22;31439;53.512;10.206;2022-07-29T08:01:42;18.40;99.90
45729;DHT22;31439;53.512;10.206;2022-07-29T08:04:08;18.50;99.90
45729;DHT22;31439;53.512;10.206;2022-07-29T08:06:34;18.70;99.90
45729;DHT22;31439;53.512;10.206;2022-07-29T08:09:02;18.80;99.90
45729;DHT22;31439;53.512;10.206;2022-07-29T08:11:27;18.80;99.90
45729;DHT22;31439;53.512;10.206;2022-07-29T08:13:54;18.90;99.90
45729;DHT22;31439;53.512;10.206;2022-07-29T08:16:20;18.90;99.90
45729;DHT22;31439;53.512;10.206;2022-07-29T08:18:46;18.90;99.90
45729;DHT22;31439;53.512;10.206;2022-07-29T08:21:13;18.90;99.90
45729;DHT22;31439;53.512;10.206;2022-07-29T08:23:39;19.00;99.90
45729;DHT22;31439;53.512;10.206;2022-07-29T08:26:06;19.00;99.90
45729;DHT22;31439;53.512;10.206;2022-07-29T08:28:38;19.00;99.90
45729;DHT22;31439;53.512;10.206;2022-07-29T08:31:04;19.10;99.90
45729;DHT22;31439;53.512;10.206;2022-07-29T08:33:30;19.20;99.90
45729;DHT22;31439;53.512;10.206;2022-07-29T08:35:56;19.20;99.90
45729;DHT22;31439;53.512;10.206;2022-07-29T08:38:22;19.30;99.90
45729;DHT22;31439;53.512;10.206;2022-07-29T08:40:48;19.50;99.90
45729;DHT22;31439;53.512;10.206;2022-07-29T08:43:13;19.50;99.90
45729;DHT22;31439;53.512;10.206;2022-07-29T08:45:44;19.60;99.90
45729;DHT22;31439;53.512;10.206;2022-07-29T08:48:15;19.70;99.90
45729;DHT22;31439;53.512;10.206;2022-07-29T08:50:42;19.80;99.90
45729;DHT22;31439;53.512;10.206;2022-07-29T08:53:11;19.90;99.90
45729;DHT22;31439;53.512;10.206;2022-07-29T08:55:42;20.00;99.90
45729;DHT22;31439;53.512;10.206;2022-07-29T08:58:09;20.00;99.90
45729;DHT22;31439;53.512;10.206;2022-07-29T09:00:37;20.00;99.90
45729;DHT22;31439;53.512;10.206;2022-07-29T09:03:04;20.10;99.90
45729;DHT22;31439;53.512;10.206;2022-07-29T09:05:31;20.20;99.90
45729;DHT22;31439;53.512;10.206;2022-07-29T09:07:58;20.20;99.90
45729;DHT22;31439;53.512;10.206;2022-07-29T09:10:24;20.20;99.90
45729;DHT22;31439;53.512;10.206;2022-07-29T09:12:49;20.30;99.90
45729;DHT22;31439;53.512;10.206;2022-07-29T09:15:15;20.30;99.90
45729;DHT22;31439;53.512;10.206;2022-07-29T09:17:45;20.60;99.90
45729;DHT22;31439;53.512;10.206;2022-07-29T09:20:16;20.70;99.90
45729;DHT22;31439;53.512;10.206;2022-07-29T09:22:41;20.70;99.90
45729;DHT22;31439;53.512;10.206;2022-07-29T09:25:08;20.70;99.90
45729;DHT22;31439;53.512;10.206;2022-07-29T09:27:34;20.60;99.90
45729;DHT22;31439;53.512;10.206;2022-07-29T09:32:27;20.60;99.90
45729;DHT22;31439;53.512;10.206;2022-07-29T09:37:41;20.50;99.90
45729;DHT22;31439;53.512;10.206;2022-07-29T09:40:19;20.50;99.90
45729;DHT22;31439;53.512;10.206;2022-07-29T09:42:46;20.50;99.90
45729;DHT22;31439;53.512;10.206;2022-07-29T09:45:12;20.60;99.90
45729;DHT22;31439;53.512;10.206;2022-07-29T09:47:46;20.70;99.90
45729;DHT22;31439;53.512;10.206;2022-07-29T09:50:15;20.70;99.90
45729;DHT22;31439;53.512;10.206;2022-07-29T09:52:51;20.80;99.90
45729;DHT22;31439;53.512;10.206;2022-07-29T09:55:18;20.90;99.90
45729;DHT22;31439;53.512;10.206;2022-07-29T09:57:44;20.90;99.90
45729;DHT22;31439;53.512;10.206;2022-07-29T10:02:39;21.10;99.90
45729;DHT22;31439;53.512;10.206;2022-07-29T10:05:26;21.10;99.90
45729;DHT22;31439;53.512;10.206;2022-07-29T10:07:55;21.10;99.90
45729;DHT22;31439;53.512;10.206;2022-07-29T10:10:25;21.20;99.90
45729;DHT22;31439;53.512;10.206;2022-07-29T10:12:59;21.50;99.90
45729;DHT22;31439;53.512;10.206;2022-07-29T10:15:31;21.60;99.90
45729;DHT22;31439;53.512;10.206;2022-07-29T10:17:59;21.50;99.90
45729;DHT22;31439;53.512;10.206;2022-07-29T10:20:26;21.50;99.90
45729;DHT22;31439;53.512;10.206;2022-07-29T10:22:53;21.50;99.90
45729;DHT22;31439;53.512;10.206;2022-07-29T10:25:21;21.50;99.90
45729;DHT22;31439;53.512;10.206;2022-07-29T10:27:48;21.40;99.90
45729;DHT22;31439;53.512;10.206;2022-07-29T10:30:17;21.40;99.90
45729;DHT22;31439;53.512;10.206;2022-07-29T10:36:11;21.50;99.90
45729;DHT22;31439;53.512;10.206;2022-07-29T10:44:22;21.70;99.90
45729;DHT22;31439;53.512;10.206;2022-07-29T10:46:50;21.80;99.90
45729;DHT22;31439;53.512;10.206;2022-07-29T10:49:35;21.90;99.90
45729;DHT22;31439;53.512;10.206;2022-07-29T10:52:05;22.00;99.90
45729;DHT22;31439;53.512;10.206;2022-07-29T10:59:42;22.60;99.90
45729;DHT22;31439;53.512;10.206;2022-07-29T11:05:06;22.80;99.90
45729;DHT22;31439;53.512;10.206;2022-07-29T11:07:34;22.90;99.90
45729;DHT22;31439;53.512;10.206;2022-07-29T11:15:13;23.40;99.90
45729;DHT22;31439;53.512;10.206;2022-07-29T11:20:43;23.50;99.90
45729;DHT22;31439;53.512;10.206;2022-07-29T11:23:33;23.40;99.90
45729;DHT22;31439;53.512;10.206;2022-07-29T11:28:48;23.30;99.90
45729;DHT22;31439;53.512;10.206;2022-07-29T11:31:16;23.30;99.90
45729;DHT22;31439;53.512;10.206;2022-07-29T11:33:45;23.30;99.90
45729;DHT22;31439;53.512;10.206;2022-07-29T11:36:12;23.30;99.90
45729;DHT22;31439;53.512;10.206;2022-07-29T11:38:38;23.30;99.90
45729;DHT22;31439;53.512;10.206;2022-07-29T11:41:23;23.40;99.90
45729;DHT22;31439;53.512;10.206;2022-07-29T11:43:54;23.60;99.90
45729;DHT22;31439;53.512;10.206;2022-07-29T11:49:12;24.10;99.90
45729;DHT22;31439;53.512;10.206;2022-07-29T11:51:38;24.40;99.90
45729;DHT22;31439;53.512;10.206;2022-07-29T11:54:04;24.40;99.90
45729;DHT22;31439;53.512;10.206;2022-07-29T11:56:34;24.40;99.90
45729;DHT22;31439;53.512;10.206;2022-07-29T11:59:05;24.50;99.90
45729;DHT22;31439;53.512;10.206;2022-07-29T12:01:31;24.70;99.90
45729;DHT22;31439;53.512;10.206;2022-07-29T12:04:06;24.70;99.90
45729;DHT22;31439;53.512;10.206;2022-07-29T12:06:33;24.70;99.90
45729;DHT22;31439;53.512;10.206;2022-07-29T12:08:59;24.80;99.90
45729;DHT22;31439;53.512;10.206;2022-07-29T12:11:25;24.80;99.90
45729;DHT22;31439;53.512;10.206;2022-07-29T12:13:52;24.70;99.90
45729;DHT22;31439;53.512;10.206;2022-07-29T12:16:20;24.70;99.90
45729;DHT22;31439;53.512;10.206;2022-07-29T12:18:58;24.70;99.90
45729;DHT22;31439;53.512;10.206;2022-07-29T12:21:24;24.50;99.90
45729;DHT22;31439;53.512;10.206;2022-07-29T12:23:54;24.40;99.90
45729;DHT22;31439;53.512;10.206;2022-07-29T12:26:22;24.30;99.90
45729;DHT22;31439;53.512;10.206;2022-07-29T12:28:48;24.20;99.90
45729;DHT22;31439;53.512;10.206;2022-07-29T12:31:15;24.20;99.90
45729;DHT22;31439;53.512;10.206;2022-07-29T12:33:41;24.10;99.90
45729;DHT22;31439;53.512;10.206;2022-07-29T12:36:08;24.10;99.90
45729;DHT22;31439;53.512;10.206;2022-07-29T12:38:37;24.00;99.80
45729;DHT22;31439;53.512;10.206;2022-07-29T12:41:05;24.20;99.90
45729;DHT22;31439;53.512;10.206;2022-07-29T12:43:33;24.30;99.90
45729;DHT22;31439;53.512;10.206;2022-07-29T12:46:12;24.40;99.90
45729;DHT22;31439;53.512;10.206;2022-07-29T12:48:40;24.80;99.90
45729;DHT22;31439;53.512;10.206;2022-07-29T12:51:07;24.90;99.90
45729;DHT22;31439;53.512;10.206;2022-07-29T12:53:35;24.90;99.10
45729;DHT22;31439;53.512;10.206;2022-07-29T12:56:01;24.90;98.60
45729;DHT22;31439;53.512;10.206;2022-07-29T13:01:16;25.50;99.90
45729;DHT22;31439;53.512;10.206;2022-07-29T13:03:54;25.90;99.40
45729;DHT22;31439;53.512;10.206;2022-07-29T13:06:40;26.10;96.40
45729;DHT22;31439;53.512;10.206;2022-07-29T13:09:17;26.30;94.00
45729;DHT22;31439;53.512;10.206;2022-07-29T13:11:49;26.50;93.40
45729;DHT22;31439;53.512;10.206;2022-07-29T13:14:33;26.70;93.00
45729;DHT22;31439;53.512;10.206;2022-07-29T13:17:05;26.70;90.90
45729;DHT22;31439;53.512;10.206;2022-07-29T13:19:41;26.70;91.10
45729;DHT22;31439;53.512;10.206;2022-07-29T13:22:12;27.00;91.40
45729;DHT22;31439;53.512;10.206;2022-07-29T13:27:25;27.20;86.80
45729;DHT22;31439;53.512;10.206;2022-07-29T13:29:52;27.20;85.90
45729;DHT22;31439;53.512;10.206;2022-07-29T13:32:19;27.20;87.80
45729;DHT22;31439;53.512;10.206;2022-07-29T13:34:45;27.00;82.90
45729;DHT22;31439;53.512;10.206;2022-07-29T13:37:11;26.80;86.00
45729;DHT22;31439;53.512;10.206;2022-07-29T13:39:37;26.80;86.10
45729;DHT22;31439;53.512;10.206;2022-07-29T13:42:03;26.70;86.10
45729;DHT22;31439;53.512;10.206;2022-07-29T13:44:29;26.40;84.60
45729;DHT22;31439;53.512;10.206;2022-07-29T13:46:55;26.30;84.50
45729;DHT22;31439;53.512;10.206;2022-07-29T13:49:21;26.10;84.90
45729;DHT22;31439;53.512;10.206;2022-07-29T13:51:49;26.00;91.70
45729;DHT22;31439;53.512;10.206;2022-07-29T13:54:15;25.80;91.00
45729;DHT22;31439;53.512;10.206;2022-07-29T13:56:40;25.70;95.40
45729;DHT22;31439;53.512;10.206;2022-07-29T13:59:06;25.40;97.10
45729;DHT22;31439;53.512;10.206;2022-07-29T14:01:34;25.30;98.40
45729;DHT22;31439;53.512;10.206;2022-07-29T14:03:59;25.10;99.70
45729;DHT22;31439;53.512;10.206;2022-07-29T14:06:25;25.00;99.90
45729;DHT22;31439;53.512;10.206;2022-07-29T14:08:51;24.90;99.90
45729;DHT22;31439;53.512;10.206;2022-07-29T14:11:16;24.90;99.90
45729;DHT22;31439;53.512;10.206;2022-07-29T14:13:42;24.90;99.90
45729;DHT22;31439;53.512;10.206;2022-07-29T14:16:08;25.00;99.90
45729;DHT22;31439;53.512;10.206;2022-07-29T14:18:33;25.00;99.90
45729;DHT22;31439;53.512;10.206;2022-07-29T14:20:59;25.00;99.90
45729;DHT22;31439;53.512;10.206;2022-07-29T14:23:25;24.90;99.90
45729;DHT22;31439;53.512;10.206;2022-07-29T14:25:51;24.90;99.90
45729;DHT22;31439;53.512;10.206;2022-07-29T14:28:16;24.90;99.90
45729;DHT22;31439;53.512;10.206;2022-07-29T14:30:42;24.90;99.90
45729;DHT22;31439;53.512;10.206;2022-07-29T14:33:08;24.90;99.90
45729;DHT22;31439;53.512;10.206;2022-07-29T14:35:34;24.90;99.90
45729;DHT22;31439;53.512;10.206;2022-07-29T14:37:59;24.70;99.90
45729;DHT22;31439;53.512;10.206;2022-07-29T14:40:25;24.70;99.90
45729;DHT22;31439;53.512;10.206;2022-07-29T14:42:53;24.70;99.90
45729;DHT22;31439;53.512;10.206;2022-07-29T14:45:19;24.60;99.90
45729;DHT22;31439;53.512;10.206;2022-07-29T14:47:44;24.60;99.90
45729;DHT22;31439;53.512;10.206;2022-07-29T14:50:10;24.60;99.90
45729;DHT22;31439;53.512;10.206;2022-07-29T14:52:36;24.60;99.90
45729;DHT22;31439;53.512;10.206;2022-07-29T14:55:03;24.60;99.90
45729;DHT22;31439;53.512;10.206;2022-07-29T14:57:29;24.60;99.90
45729;DHT22;31439;53.512;10.206;2022-07-29T14:59:54;24.50;99.90
45729;DHT22;31439;53.512;10.206;2022-07-29T15:02:20;24.60;99.90
45729;DHT22;31439;53.512;10.206;2022-07-29T15:04:46;24.50;99.90
45729;DHT22;31439;53.512;10.206;2022-07-29T15:07:13;24.50;99.90
45729;DHT22;31439;53.512;10.206;2022-07-29T15:09:39;24.60;99.90
45729;DHT22;31439;53.512;10.206;2022-07-29T15:12:05;24.60;99.90
45729;DHT22;31439;53.512;10.206;2022-07-29T15:14:31;24.60;99.90
45729;DHT22;31439;53.512;10.206;2022-07-29T15:16:57;24.40;99.90
45729;DHT22;31439;53.512;10.206;2022-07-29T15:19:23;24.30;99.90
45729;DHT22;31439;53.512;10.206;2022-07-29T15:21:48;24.20;99.90
45729;DHT22;31439;53.512;10.206;2022-07-29T15:24:15;24.20;99.90
45729;DHT22;31439;53.512;10.206;2022-07-29T15:26:40;24.30;99.90
45729;DHT22;31439;53.512;10.206;2022-07-29T15:29:07;24.30;99.90
45729;DHT22;31439;53.512;10.206;2022-07-29T15:31:33;24.30;99.90
45729;DHT22;31439;53.512;10.206;2022-07-29T15:33:59;24.30;99.90
45729;DHT22;31439;53.512;10.206;2022-07-29T15:36:24;24.30;99.90
45729;DHT22;31439;53.512;10.206;2022-07-29T15:38:52;24.30;99.90
45729;DHT22;31439;53.512;10.206;2022-07-29T15:41:18;24.30;99.90
45729;DHT22;31439;53.512;10.206;2022-07-29T15:43:44;24.30;99.90
45729;DHT22;31439;53.512;10.206;2022-07-29T15:46:13;24.30;99.90
45729;DHT22;31439;53.512;10.206;2022-07-29T15:48:57;24.30;99.90
45729;DHT22;31439;53.512;10.206;2022-07-29T15:51:23;24.20;99.90
45729;DHT22;31439;53.512;10.206;2022-07-29T15:53:49;24.20;99.90
45729;DHT22;31439;53.512;10.206;2022-07-29T15:56:15;24.30;99.90
45729;DHT22;31439;53.512;10.206;2022-07-29T15:58:41;24.30;99.90
45729;DHT22;31439;53.512;10.206;2022-07-29T16:01:06;24.30;99.90
45729;DHT22;31439;53.512;10.206;2022-07-29T16:03:32;24.20;99.90
45729;DHT22;31439;53.512;10.206;2022-07-29T16:05:57;24.20;99.90
45729;DHT22;31439;53.512;10.206;2022-07-29T16:08:23;24.10;99.90
45729;DHT22;31439;53.512;10.206;2022-07-29T16:10:49;24.10;99.90